createdAt,value
2018-04-12T00:02:05.429Z,96664.80
2018-04-12T00:04:32.881Z,96661.59
2018-04-12T00:07:00.353Z,96656.77
2018-04-12T00:09:27.834Z,96646.78
2018-04-12T00:11:55.410Z,96641.61
2018-04-12T00:14:23.183Z,96639.88
2018-04-12T00:16:51.092Z,96637.49
2018-04-12T00:19:18.622Z,96631.01
2018-04-12T00:24:21.271Z,96624.20
2018-04-12T00:26:48.794Z,96629.80
2018-04-12T00:29:16.327Z,96624.24
2018-04-12T00:31:43.859Z,96616.31
2018-04-12T00:34:16.452Z,96613.23
2018-04-12T00:36:44.320Z,96609.56
2018-04-12T00:39:12.303Z,96598.97
2018-04-12T00:41:45.787Z,96592.64
2018-04-12T00:44:13.475Z,96583.89
2018-04-12T00:46:52.476Z,96570.78
2018-04-12T00:49:20.543Z,96569.23
2018-04-12T00:51:55.330Z,96560.47
2018-04-12T00:54:26.822Z,96557.73
2018-04-12T00:56:54.440Z,96555.34
2018-04-12T00:59:22.029Z,96553.53
2018-04-12T01:01:52.408Z,96544.09
2018-04-12T01:04:27.614Z,96535.88
2018-04-12T01:06:55.948Z,96528.70
2018-04-12T01:09:23.773Z,96523.91
2018-04-12T01:11:51.249Z,96520.13
2018-04-12T01:14:18.731Z,96522.16
2018-04-12T01:16:46.204Z,96529.44
2018-04-12T01:19:13.680Z,96531.51
2018-04-12T01:21:41.216Z,96533.49
2018-04-12T01:24:08.716Z,96536.48
2018-04-12T01:26:36.203Z,96535.01
2018-04-12T01:29:03.700Z,96535.35
2018-04-12T01:31:31.201Z,96542.88
2018-04-12T01:33:58.687Z,96543.58
2018-04-12T01:36:26.157Z,96542.52
2018-04-12T01:38:53.643Z,96547.09
2018-04-12T01:41:21.114Z,96552.24
2018-04-12T01:43:48.576Z,96550.10
2018-04-12T01:46:16.120Z,96553.70
2018-04-12T01:48:43.611Z,96547.49
2018-04-12T01:51:11.184Z,96552.41
2018-04-12T01:53:38.680Z,96554.05
2018-04-12T01:56:06.144Z,96555.16
2018-04-12T01:58:33.641Z,96553.44
2018-04-12T02:01:01.136Z,96553.47
2018-04-12T02:03:28.673Z,96560.23
2018-04-12T02:05:56.431Z,96557.48
2018-04-12T02:08:23.927Z,96552.05
2018-04-12T02:10:51.401Z,96553.55
2018-04-12T02:13:18.848Z,96548.91
2018-04-12T02:15:46.371Z,96540.97
2018-04-12T02:18:13.842Z,96538.59
2018-04-12T02:20:41.301Z,96536.23
2018-04-12T02:23:08.783Z,96528.59
2018-04-12T02:25:36.243Z,96519.33
2018-04-12T02:28:03.712Z,96515.49
2018-04-12T02:30:31.180Z,96508.77
2018-04-12T02:32:58.742Z,96510.16
2018-04-12T02:35:26.328Z,96510.72
2018-04-12T02:37:53.805Z,96502.78
2018-04-12T02:40:21.288Z,96496.09
2018-04-12T02:42:48.759Z,96499.08
2018-04-12T02:45:16.248Z,96500.95
2018-04-12T02:47:43.729Z,96488.36
2018-04-12T02:50:11.278Z,96488.20
2018-04-12T02:52:38.870Z,96489.92
2018-04-12T02:55:06.337Z,96496.26
2018-04-12T02:57:33.802Z,96487.28
2018-04-12T03:00:01.289Z,96495.23
2018-04-12T03:02:28.796Z,96491.38
2018-04-12T03:04:56.455Z,96490.13
2018-04-12T03:07:23.933Z,96482.77
2018-04-12T03:09:51.630Z,96488.18
2018-04-12T03:12:19.144Z,96484.11
2018-04-12T03:14:46.610Z,96477.14
2018-04-12T03:17:14.118Z,96480.56
2018-04-12T03:19:41.578Z,96475.39
2018-04-12T03:22:09.054Z,96478.69
2018-04-12T03:24:36.624Z,96467.95
2018-04-12T03:27:04.086Z,96467.62
2018-04-12T03:29:31.583Z,96478.94
2018-04-12T03:31:59.091Z,96492.22
2018-04-12T03:34:26.565Z,96496.91
2018-04-12T03:36:54.131Z,96503.23
2018-04-12T03:39:21.616Z,96509.80
2018-04-12T03:41:49.086Z,96513.44
2018-04-12T03:44:16.678Z,96509.20
2018-04-12T03:46:44.173Z,96507.85
2018-04-12T03:49:11.709Z,96510.14
2018-04-12T03:51:39.183Z,96509.06
2018-04-12T03:54:06.672Z,96510.56
2018-04-12T03:56:34.427Z,96506.55
2018-04-12T03:59:01.927Z,96504.15
2018-04-12T04:01:29.424Z,96510.63
2018-04-12T04:03:57.097Z,96507.41
2018-04-12T04:06:24.579Z,96508.17
2018-04-12T04:08:52.047Z,96514.83
2018-04-12T04:11:19.522Z,96521.89
2018-04-12T04:13:47.041Z,96530.48
2018-04-12T04:16:26.274Z,96527.77
2018-04-12T04:19:05.831Z,96524.00
2018-04-12T04:21:33.318Z,96531.33
2018-04-12T04:24:00.908Z,96533.63
2018-04-12T04:26:28.588Z,96515.33
2018-04-12T04:28:56.095Z,96507.30
2018-04-12T04:31:23.670Z,96508.56
2018-04-12T04:33:51.138Z,96514.20
2018-04-12T04:36:18.619Z,96521.58
2018-04-12T04:38:46.162Z,96525.71
2018-04-12T04:41:13.643Z,96533.67
2018-04-12T04:43:41.113Z,96537.45
2018-04-12T04:46:08.650Z,96536.19
2018-04-12T04:48:36.154Z,96535.47
2018-04-12T04:51:03.737Z,96534.27
2018-04-12T04:53:31.331Z,96537.10
2018-04-12T04:55:58.946Z,96534.56
2018-04-12T04:58:26.436Z,96534.73
2018-04-12T05:00:53.987Z,96528.84
2018-04-12T05:03:21.477Z,96531.17
2018-04-12T05:05:49.264Z,96532.34
2018-04-12T05:08:16.773Z,96535.88
2018-04-12T05:10:44.374Z,96529.83
2018-04-12T05:13:11.899Z,96532.97
2018-04-12T05:15:39.488Z,96539.77
2018-04-12T05:18:06.985Z,96544.34
2018-04-12T05:20:34.466Z,96552.48
2018-04-12T05:23:01.961Z,96554.80
2018-04-12T05:25:29.451Z,96560.06
2018-04-12T05:27:56.936Z,96566.17
2018-04-12T05:30:24.684Z,96566.45
2018-04-12T05:32:52.290Z,96566.52
2018-04-12T05:35:19.841Z,96565.00
2018-04-12T05:37:47.365Z,96573.66
2018-04-12T05:40:14.865Z,96574.97
2018-04-12T05:42:42.344Z,96578.41
2018-04-12T05:45:09.889Z,96567.55
2018-04-12T05:47:37.795Z,96566.42
2018-04-12T05:50:05.311Z,96569.59
2018-04-12T05:52:33.185Z,96564.67
2018-04-12T05:55:00.894Z,96566.91
2018-04-12T05:57:28.471Z,96578.22
2018-04-12T05:59:56.096Z,96582.19
2018-04-12T06:02:23.615Z,96578.77
2018-04-12T06:04:51.159Z,96583.00
2018-04-12T06:07:18.645Z,96575.64
2018-04-12T06:09:46.466Z,96575.77
2018-04-12T06:12:13.945Z,96572.77
2018-04-12T06:14:41.449Z,96569.97
2018-04-12T06:17:08.905Z,96564.52
2018-04-12T06:19:36.409Z,96569.21
2018-04-12T06:22:04.054Z,96578.54
2018-04-12T06:24:31.695Z,96576.42
2018-04-12T06:26:59.175Z,96589.87
2018-04-12T06:29:26.690Z,96582.41
2018-04-12T06:31:54.303Z,96574.38
2018-04-12T06:34:21.798Z,96573.32
2018-04-12T06:36:49.293Z,96564.47
2018-04-12T06:39:16.843Z,96562.97
2018-04-12T06:41:44.315Z,96548.23
2018-04-12T06:44:11.798Z,96546.33
2018-04-12T06:46:39.292Z,96539.41
2018-04-12T06:49:06.799Z,96534.96
2018-04-12T06:51:34.316Z,96532.80
2018-04-12T06:54:01.842Z,96529.19
2018-04-12T06:56:29.334Z,96520.58
2018-04-12T06:58:56.932Z,96522.55
2018-04-12T07:01:24.444Z,96522.47
2018-04-12T07:03:52.961Z,96521.34
2018-04-12T07:06:20.440Z,96524.48
2018-04-12T07:08:47.978Z,96522.23
2018-04-12T07:11:15.516Z,96508.34
2018-04-12T07:13:43.015Z,96515.56
2018-04-12T07:16:10.539Z,96512.67
2018-04-12T07:18:38.008Z,96511.08
2018-04-12T07:21:05.561Z,96509.11
2018-04-12T07:23:33.073Z,96522.03
2018-04-12T07:26:00.532Z,96523.64
2018-04-12T07:28:28.043Z,96524.09
2018-04-12T07:30:55.568Z,96527.62
2018-04-12T07:33:23.113Z,96531.84
2018-04-12T07:35:50.598Z,96548.55
2018-04-12T07:38:18.082Z,96559.77
2018-04-12T07:40:45.627Z,96573.84
2018-04-12T07:43:13.089Z,96571.43
2018-04-12T07:45:40.706Z,96578.16
2018-04-12T07:48:08.362Z,96588.02
2018-04-12T07:50:35.847Z,96595.53
2018-04-12T07:53:03.348Z,96584.45
2018-04-12T07:55:31.015Z,96580.17
2018-04-12T07:57:58.524Z,96584.91
2018-04-12T08:00:26.034Z,96589.30
2018-04-12T08:02:53.824Z,96610.25
2018-04-12T08:05:21.315Z,96616.81
2018-04-12T08:07:48.829Z,96631.46
2018-04-12T08:10:16.319Z,96624.93
2018-04-12T08:12:43.818Z,96623.70
2018-04-12T08:15:11.305Z,96625.33
2018-04-12T08:17:38.835Z,96636.13
2018-04-12T08:20:06.308Z,96634.99
2018-04-12T08:22:33.801Z,96642.42
2018-04-12T08:25:01.283Z,96650.50
2018-04-12T08:27:28.777Z,96653.02
2018-04-12T08:29:56.282Z,96647.36
2018-04-12T08:32:23.849Z,96642.59
2018-04-12T08:34:51.353Z,96639.27
2018-04-12T08:37:18.965Z,96639.47
2018-04-12T08:39:46.454Z,96640.98
2018-04-12T08:42:13.942Z,96645.83
2018-04-12T08:44:41.395Z,96652.17
2018-04-12T08:47:08.854Z,96666.08
2018-04-12T08:49:36.356Z,96676.55
2018-04-12T08:52:03.845Z,96690.00
2018-04-12T08:54:31.464Z,96692.39
2018-04-12T08:57:00.225Z,96691.36
2018-04-12T08:59:27.732Z,96686.85
2018-04-12T09:01:55.193Z,96669.11
2018-04-12T09:04:22.654Z,96657.46
2018-04-12T09:06:50.179Z,96658.75
2018-04-12T09:09:17.761Z,96671.00
2018-04-12T09:11:45.285Z,96665.52
2018-04-12T09:14:12.736Z,96673.05
2018-04-12T09:16:40.236Z,96688.13
2018-04-12T09:19:07.866Z,96702.72
2018-04-12T09:21:35.378Z,96720.81
2018-04-12T09:24:02.847Z,96724.99
2018-04-12T09:26:30.377Z,96707.81
2018-04-12T09:28:57.856Z,96718.30
2018-04-12T09:31:25.315Z,96709.97
2018-04-12T09:33:52.778Z,96710.27
2018-04-12T09:36:20.494Z,96704.19
2018-04-12T09:38:48.034Z,96696.05
2018-04-12T09:41:15.513Z,96704.94
2018-04-12T09:43:43.005Z,96702.80
2018-04-12T09:46:11.501Z,96697.73
2018-04-12T09:48:39.049Z,96698.06
2018-04-12T09:51:06.534Z,96700.60
2018-04-12T09:53:34.164Z,96704.86
2018-04-12T09:56:01.712Z,96696.03
2018-04-12T09:58:29.161Z,96698.06
2018-04-12T10:00:56.801Z,96706.56
2018-04-12T10:03:24.392Z,96712.62
2018-04-12T10:05:57.440Z,96716.36
2018-04-12T10:08:27.733Z,96713.05
2018-04-12T10:10:55.205Z,96710.59
2018-04-12T10:13:22.697Z,96705.78
2018-04-12T10:15:50.160Z,96706.73
2018-04-12T10:18:17.663Z,96708.41
2018-04-12T10:20:45.177Z,96726.05
2018-04-12T10:23:12.757Z,96726.20
2018-04-12T10:25:40.240Z,96726.55
2018-04-12T10:28:07.712Z,96720.91
2018-04-12T10:30:35.201Z,96723.85
2018-04-12T10:33:02.673Z,96720.69
2018-04-12T10:35:30.168Z,96722.64
2018-04-12T10:37:57.630Z,96721.39
2018-04-12T10:40:25.416Z,96707.70
2018-04-12T10:42:52.903Z,96709.48
2018-04-12T10:45:20.376Z,96704.42
2018-04-12T10:47:47.838Z,96702.80
2018-04-12T10:50:15.313Z,96697.19
2018-04-12T10:52:42.779Z,96692.36
2018-04-12T10:55:10.215Z,96709.25
2018-04-12T10:57:37.737Z,96706.15
2018-04-12T11:00:05.353Z,96701.75
2018-04-12T11:02:32.914Z,96709.95
2018-04-12T11:05:00.472Z,96707.08
2018-04-12T11:07:27.895Z,96718.25
2018-04-12T11:09:55.386Z,96717.45
2018-04-12T11:12:22.867Z,96708.87
2018-04-12T11:14:50.348Z,96710.12
2018-04-12T11:17:17.792Z,96713.31
2018-04-12T11:19:45.279Z,96711.78
2018-04-12T11:22:12.951Z,96711.11
2018-04-12T11:24:40.515Z,96705.95
2018-04-12T11:27:08.117Z,96705.61
2018-04-12T11:29:35.676Z,96702.92
2018-04-12T11:32:03.146Z,96714.78
2018-04-12T11:34:30.690Z,96694.58
2018-04-12T11:36:58.221Z,96703.39
2018-04-12T11:39:25.676Z,96698.70
2018-04-12T11:41:53.309Z,96699.75
2018-04-12T11:44:20.850Z,96700.23
2018-04-12T11:46:48.357Z,96702.63
2018-04-12T11:49:15.858Z,96704.78
2018-04-12T11:51:43.324Z,96711.33
2018-04-12T11:54:10.857Z,96700.08
2018-04-12T11:56:38.368Z,96705.68
2018-04-12T11:59:05.845Z,96705.96
2018-04-12T12:01:33.318Z,96722.21
2018-04-12T12:04:00.862Z,96718.97
2018-04-12T12:06:28.407Z,96725.61
2018-04-12T12:08:55.890Z,96725.89
2018-04-12T12:11:23.368Z,96724.91
2018-04-12T12:13:51.108Z,96723.20
2018-04-12T12:16:18.597Z,96724.41
2018-04-12T12:18:46.102Z,96724.41
2018-04-12T12:21:13.620Z,96727.17
2018-04-12T12:23:41.224Z,96723.48
2018-04-12T12:26:08.713Z,96730.45
2018-04-12T12:28:36.333Z,96722.58
2018-04-12T12:31:03.828Z,96724.92
2018-04-12T12:33:31.511Z,96726.05
2018-04-12T12:35:59.010Z,96727.58
2018-04-12T12:38:26.482Z,96733.49
2018-04-12T12:40:53.994Z,96732.56
2018-04-12T12:43:21.497Z,96730.80
2018-04-12T12:45:48.970Z,96740.66
2018-04-12T12:48:16.440Z,96727.62
2018-04-12T12:50:44.970Z,96733.70
2018-04-12T12:53:12.479Z,96734.34
2018-04-12T12:55:39.978Z,96732.56
2018-04-12T12:58:07.441Z,96734.91
2018-04-12T13:00:35.303Z,96738.17
2018-04-12T13:03:02.834Z,96737.59
2018-04-12T13:05:30.327Z,96740.53
2018-04-12T13:07:57.948Z,96735.59
2018-04-12T13:10:25.432Z,96732.47
2018-04-12T13:12:52.907Z,96733.45
2018-04-12T13:15:20.387Z,96731.84
2018-04-12T13:17:47.919Z,96732.84
2018-04-12T13:20:15.562Z,96727.79
2018-04-12T13:22:43.038Z,96726.72
2018-04-12T13:25:10.605Z,96722.72
2018-04-12T13:27:38.107Z,96717.12
2018-04-12T13:30:05.643Z,96719.62
2018-04-12T13:32:33.103Z,96725.92
2018-04-12T13:35:04.000Z,96724.53
2018-04-12T13:37:31.641Z,96719.55
2018-04-12T13:39:59.190Z,96721.17
2018-04-12T13:42:26.676Z,96720.36
2018-04-12T13:44:54.146Z,96718.42
2018-04-12T13:47:21.723Z,96704.72
2018-04-12T13:49:49.199Z,96711.26
2018-04-12T13:52:16.670Z,96716.36
2018-04-12T13:54:44.314Z,96715.50
2018-04-12T13:57:11.781Z,96717.23
2018-04-12T13:59:39.272Z,96717.32
2018-04-12T14:02:06.773Z,96715.81
2018-04-12T14:04:34.255Z,96715.06
2018-04-12T14:07:01.746Z,96707.01
2018-04-12T14:09:29.203Z,96704.02
2018-04-12T14:11:56.690Z,96699.19
2018-04-12T14:14:24.181Z,96696.42
2018-04-12T14:16:51.673Z,96693.64
2018-04-12T14:19:19.158Z,96690.15
2018-04-12T14:21:46.664Z,96696.73
2018-04-12T14:24:15.651Z,96702.17
2018-04-12T14:26:49.848Z,96704.31
2018-04-12T14:29:19.636Z,96697.31
2018-04-12T14:31:47.195Z,96705.63
2018-04-12T14:34:14.759Z,96703.70
2018-04-12T14:36:42.221Z,96695.08
2018-04-12T14:39:09.855Z,96703.47
2018-04-12T14:41:37.339Z,96703.16
2018-04-12T14:44:04.801Z,96699.31
2018-04-12T14:46:32.590Z,96704.26
2018-04-12T14:49:00.057Z,96708.27
2018-04-12T14:51:27.536Z,96699.92
2018-04-12T14:53:55.078Z,96697.20
2018-04-12T14:56:22.573Z,96702.31
2018-04-12T14:58:50.182Z,96696.53
2018-04-12T15:01:17.642Z,96691.79
2018-04-12T15:03:45.117Z,96696.33
2018-04-12T15:06:12.614Z,96695.09
2018-04-12T15:08:40.103Z,96688.56
2018-04-12T15:11:07.571Z,96693.70
2018-04-12T15:13:35.126Z,96690.80
2018-04-12T15:16:02.619Z,96685.13
2018-04-12T15:18:30.230Z,96682.97
2018-04-12T15:20:57.705Z,96679.75
2018-04-12T15:23:25.219Z,96685.63
2018-04-12T15:25:52.707Z,96687.00
2018-04-12T15:28:20.382Z,96682.84
2018-04-12T15:30:47.900Z,96680.70
2018-04-12T15:33:16.452Z,96686.25
2018-04-12T15:35:44.002Z,96683.21
2018-04-12T15:38:11.455Z,96681.89
2018-04-12T15:40:38.947Z,96683.55
2018-04-12T15:43:08.487Z,96688.23
2018-04-12T15:45:36.034Z,96690.30
2018-04-12T15:48:03.555Z,96687.14
2018-04-12T15:50:31.024Z,96685.97
2018-04-12T15:52:58.510Z,96682.28
2018-04-12T15:55:26.109Z,96689.48
2018-04-12T15:57:53.586Z,96686.20
2018-04-12T16:00:21.082Z,96690.66
2018-04-12T16:02:48.633Z,96688.17
2018-04-12T16:05:16.116Z,96684.03
2018-04-12T16:07:43.692Z,96675.66
2018-04-12T16:10:11.169Z,96679.61
2018-04-12T16:12:38.638Z,96679.31
2018-04-12T16:15:06.206Z,96685.16
2018-04-12T16:17:33.693Z,96689.87
2018-04-12T16:20:01.195Z,96698.00
2018-04-12T16:22:28.705Z,96700.03
2018-04-12T16:24:56.186Z,96692.00
2018-04-12T16:27:23.831Z,96696.45
2018-04-12T16:29:51.331Z,96694.44
2018-04-12T16:32:18.832Z,96698.81
2018-04-12T16:34:46.471Z,96697.95
2018-04-12T16:37:13.974Z,96701.28
2018-04-12T16:39:41.528Z,96707.36
2018-04-12T16:42:09.002Z,96707.77
2018-04-12T16:44:36.473Z,96706.84
2018-04-12T16:47:03.959Z,96704.92
2018-04-12T16:49:31.523Z,96710.85
2018-04-12T16:51:59.072Z,96714.22
2018-04-12T16:54:26.554Z,96708.27
2018-04-12T16:56:54.027Z,96707.39
2018-04-12T16:59:21.718Z,96706.61
2018-04-12T17:01:49.220Z,96708.44
2018-04-12T17:04:16.821Z,96699.55
2018-04-12T17:06:44.352Z,96707.95
2018-04-12T17:09:11.839Z,96711.09
2018-04-12T17:11:39.320Z,96710.84
2018-04-12T17:14:07.251Z,96707.77
2018-04-12T17:16:34.824Z,96707.83
2018-04-12T17:19:02.457Z,96706.56
2018-04-12T17:21:30.155Z,96703.13
2018-04-12T17:23:57.618Z,96699.70
2018-04-12T17:26:25.181Z,96695.28
2018-04-12T17:28:52.958Z,96698.78
2018-04-12T17:31:21.298Z,96696.94
2018-04-12T17:33:48.761Z,96700.78
2018-04-12T17:36:16.240Z,96699.70
2018-04-12T17:38:43.689Z,96696.59
2018-04-12T17:41:11.252Z,96697.48
2018-04-12T17:43:38.774Z,96692.55
2018-04-12T17:46:06.271Z,96689.81
2018-04-12T17:48:33.736Z,96687.79
2018-04-12T17:51:01.321Z,96682.78
2018-04-12T17:53:28.797Z,96684.88
2018-04-12T17:55:56.370Z,96686.23
2018-04-12T17:58:23.871Z,96684.38
2018-04-12T18:00:51.444Z,96684.62
2018-04-12T18:03:18.988Z,96689.27
2018-04-12T18:05:46.461Z,96692.16
2018-04-12T18:08:13.928Z,96696.34
2018-04-12T18:10:41.419Z,96703.42
2018-04-12T18:13:09.000Z,96712.41
2018-04-12T18:15:36.670Z,96714.09
2018-04-12T18:18:04.139Z,96725.84
2018-04-12T18:20:31.750Z,96721.09
2018-04-12T18:23:07.172Z,96722.06
2018-04-12T18:25:34.830Z,96726.45
2018-04-12T18:28:02.324Z,96731.09
2018-04-12T18:30:29.859Z,96733.39
2018-04-12T18:32:57.340Z,96736.69
2018-04-12T18:35:25.832Z,96748.94
2018-04-12T18:37:53.324Z,96752.72
2018-04-12T18:40:21.030Z,96768.87
2018-04-12T18:42:48.588Z,96764.55
2018-04-12T18:45:16.295Z,96768.15
2018-04-12T18:47:44.009Z,96767.05
2018-04-12T18:50:11.595Z,96769.71
2018-04-12T18:52:39.102Z,96782.52
2018-04-12T18:55:06.694Z,96782.03
2018-04-12T18:57:34.186Z,96781.89
2018-04-12T19:00:01.759Z,96783.59
2018-04-12T19:02:29.888Z,96792.30
2018-04-12T19:04:57.502Z,96789.12
2018-04-12T19:07:25.154Z,96795.46
2018-04-12T19:09:52.692Z,96798.26
2018-04-12T19:12:23.247Z,96796.87
2018-04-12T19:14:50.869Z,96795.77
2018-04-12T19:17:18.367Z,96796.97
2018-04-12T19:19:46.160Z,96793.53
2018-04-12T19:22:13.639Z,96800.95
2018-04-12T19:24:41.244Z,96807.34
2018-04-12T19:27:08.838Z,96804.00
2018-04-12T19:29:36.366Z,96795.98
2018-04-12T19:32:04.190Z,96799.51
2018-04-12T19:34:31.866Z,96806.53
2018-04-12T19:36:59.569Z,96800.70
2018-04-12T19:39:27.176Z,96800.09
2018-04-12T19:41:54.789Z,96787.91
2018-04-12T19:44:22.326Z,96797.94
2018-04-12T19:46:49.810Z,96793.38
2018-04-12T19:49:17.292Z,96799.28
2018-04-12T19:51:45.097Z,96794.86
2018-04-12T19:54:12.633Z,96799.52
2018-04-12T19:56:40.116Z,96798.86
2018-04-12T19:59:07.644Z,96792.29
2018-04-12T20:01:35.322Z,96796.72
2018-04-12T20:04:03.202Z,96795.69
2018-04-12T20:06:31.022Z,96800.82
2018-04-12T20:08:58.506Z,96793.38
2018-04-12T20:11:26.008Z,96789.33
2018-04-12T20:13:53.570Z,96787.41
2018-04-12T20:16:21.042Z,96786.83
2018-04-12T20:18:48.606Z,96789.36
2018-04-12T20:21:16.162Z,96791.68
2018-04-12T20:23:43.642Z,96787.67
2018-04-12T20:26:12.048Z,96784.75
2018-04-12T20:28:40.124Z,96780.34
2018-04-12T20:31:07.783Z,96781.19
2018-04-12T20:33:35.603Z,96782.27
2018-04-12T20:36:03.648Z,96790.98
2018-04-12T20:38:34.099Z,96787.02
2018-04-12T20:41:08.799Z,96793.17
2018-04-12T20:47:01.451Z,96798.13
2018-04-12T20:49:37.911Z,96799.02
2018-04-12T20:52:05.392Z,96794.22
2018-04-12T20:54:32.967Z,96793.59
2018-04-12T20:57:03.388Z,96799.91
2018-04-12T20:59:31.029Z,96799.86
2018-04-12T21:01:58.720Z,96801.05
2018-04-12T21:04:26.219Z,96785.50
2018-04-12T21:06:53.894Z,96793.66
2018-04-12T21:09:21.385Z,96795.66
2018-04-12T21:11:48.910Z,96791.93
2018-04-12T21:14:16.414Z,96794.41
2018-04-12T21:16:43.937Z,96792.55
2018-04-12T21:19:11.560Z,96799.59
2018-04-12T21:21:39.051Z,96793.67
2018-04-12T21:24:06.592Z,96795.23
2018-04-12T21:26:34.093Z,96793.73
2018-04-12T21:29:01.626Z,96792.89
2018-04-12T21:31:29.126Z,96796.16
2018-04-12T21:33:56.679Z,96798.88
2018-04-12T21:36:24.159Z,96799.72
2018-04-12T21:38:51.667Z,96795.20
2018-04-12T21:41:19.159Z,96796.09
2018-04-12T21:43:46.690Z,96795.99
2018-04-12T21:46:14.192Z,96800.05
2018-04-12T21:48:41.652Z,96794.75
2018-04-12T21:51:09.124Z,96797.05
2018-04-12T21:53:36.646Z,96796.76
2018-04-12T21:56:04.130Z,96795.60
2018-04-12T21:58:31.604Z,96792.63
2018-04-12T22:00:59.126Z,96801.88
2018-04-12T22:03:26.685Z,96799.37
2018-04-12T22:05:54.252Z,96799.61
2018-04-12T22:08:21.864Z,96804.20
2018-04-12T22:10:49.362Z,96802.75
2018-04-12T22:13:16.849Z,96806.55
2018-04-12T22:15:44.382Z,96798.19
2018-04-12T22:18:11.848Z,96805.22
2018-04-12T22:20:39.335Z,96794.36
2018-04-12T22:23:06.892Z,96799.39
2018-04-12T22:25:34.365Z,96798.48
2018-04-12T22:28:01.862Z,96803.12
2018-04-12T22:30:29.356Z,96807.90
2018-04-12T22:32:56.928Z,96811.81
2018-04-12T22:35:24.434Z,96814.95
2018-04-12T22:37:51.991Z,96809.77
2018-04-12T22:40:19.466Z,96809.36
2018-04-12T22:42:47.044Z,96808.36
2018-04-12T22:45:14.540Z,96811.02
2018-04-12T22:47:42.174Z,96812.89
2018-04-12T22:50:09.651Z,96814.58
2018-04-12T22:52:37.144Z,96822.87
2018-04-12T22:55:04.625Z,96825.39
2018-04-12T22:57:32.115Z,96824.24
2018-04-12T22:59:59.593Z,96826.30
2018-04-12T23:02:27.127Z,96826.98
2018-04-12T23:04:54.614Z,96826.77
2018-04-12T23:07:22.107Z,96828.71
2018-04-12T23:09:49.562Z,96824.13
2018-04-12T23:12:17.039Z,96828.55
2018-04-12T23:14:44.544Z,96827.04
2018-04-12T23:17:12.030Z,96837.87
2018-04-12T23:19:39.534Z,96837.15
2018-04-12T23:22:07.154Z,96837.24
2018-04-12T23:24:34.620Z,96843.55
2018-04-12T23:27:02.133Z,96842.91
2018-04-12T23:29:29.611Z,96845.80
2018-04-12T23:31:57.076Z,96846.42
2018-04-12T23:34:24.587Z,96854.04
2018-04-12T23:36:52.170Z,96846.39
2018-04-12T23:39:19.644Z,96857.92
2018-04-12T23:41:47.108Z,96857.60
2018-04-12T23:44:14.573Z,96860.80
2018-04-12T23:46:42.058Z,96861.84
2018-04-12T23:49:09.513Z,96863.72
2018-04-12T23:51:37.049Z,96868.88
2018-04-12T23:54:04.574Z,96867.39
2018-04-12T23:56:32.130Z,96864.10
2018-04-12T23:58:59.613Z,96869.62
